Time;durP1;ratioP1;P1;durP2;ratioP2;P2;SDS_P1;SDS_P2;PMS_P1;PMS_P2;Temp;Humidity;BMP_temperature;BMP_pressure;BME280_temperature;BME280_humidity;BME280_pressure;Samples;Min_cycle;Max_cycle;Signal;HPM_P1;HPM_P2
2021/07/11 01:28:18;;;;;;;2.30;1.50;;;;;;;;;;4934062;29;20196;-88
2021/07/11 01:55:29;;;;;;;;;;;;;;;;;;;;;
2021/07/11 02:23:11;;;;;;;;;;;;;;;;;;;;;
2021/07/11 03:43:32;;;;;;;2.70;1.40;;;;;;;;;;4973044;28;20219;-87
2021/07/11 04:19:57;;;;;;;2.30;1.00;;;;;;;;;;4902199;29;20566;-88
2021/07/11 04:23:03;;;;;;;3.20;1.23;;;;;;;;;;4916489;28;20203;-88
2021/07/11 04:26:08;;;;;;;1.10;0.90;;;;;;;;;;5061470;28;20219;-86
2021/07/11 04:29:13;;;;;;;2.30;1.20;;;;;;;;;;5050560;28;20187;-86
2021/07/11 04:32:18;;;;;;;0.97;0.90;;;;;;;;;;5038898;28;20539;-86
2021/07/11 04:35:22;;;;;;;1.50;1.20;;;;;;;;;;5050054;28;20681;-88
2021/07/11 04:38:27;;;;;;;1.83;1.20;;;;;;;;;;5038795;28;20199;-88
2021/07/11 04:41:30;;;;;;;3.53;1.10;;;;;;;;;;5039167;28;20175;-86
2021/07/11 04:44:35;;;;;;;1.20;0.97;;;;;;;;;;5018806;28;20572;-87
2021/07/11 04:47:42;;;;;;;2.37;1.20;;;;;;;;;;5030094;28;20199;-86
2021/07/11 05:04:41;;;;;;;3.70;1.33;;;;;;;;;;5029798;22;20711;-75
2021/07/11 05:07:45;;;;;;;2.37;1.00;;;;;;;;;;5025009;28;20196;-75
2021/07/11 05:10:50;;;;;;;2.10;1.20;;;;;;;;;;5024959;28;20224;-75
2021/07/11 05:13:54;;;;;;;2.97;1.60;;;;;;;;;;5037154;28;20540;-75
2021/07/11 05:16:58;;;;;;;1.63;1.13;;;;;;;;;;5082623;22;20574;-76
2021/07/11 05:20:05;;;;;;;2.67;1.10;;;;;;;;;;5065026;28;20179;-75
2021/07/11 05:23:09;;;;;;;3.80;1.40;;;;;;;;;;5036712;28;20188;-75
2021/07/11 05:26:13;;;;;;;2.20;1.20;;;;;;;;;;5029506;28;20197;-75
2021/07/11 05:29:17;;;;;;;2.47;1.00;;;;;;;;;;5043516;28;20654;-75
2021/07/11 05:32:22;;;;;;;2.33;1.40;;;;;;;;;;5044547;28;20219;-75
2021/07/11 05:35:26;;;;;;;1.37;1.07;;;;;;;;;;5056692;28;20180;-75
2021/07/11 05:38:30;;;;;;;3.50;1.20;;;;;;;;;;5024608;28;20185;-75
2021/07/11 05:41:33;;;;;;;1.60;1.20;;;;;;;;;;5025268;28;20219;-75
2021/07/11 05:44:38;;;;;;;1.80;1.40;;;;;;;;;;5032814;28;20212;-75
2021/07/11 05:47:42;;;;;;;1.30;1.20;;;;;;;;;;5064423;28;20187;-75
2021/07/11 05:50:45;;;;;;;2.70;1.27;;;;;;;;;;5064449;28;20546;-75
2021/07/11 05:53:49;;;;;;;3.47;1.03;;;;;;;;;;5065058;28;20184;-75
2021/07/11 05:56:53;;;;;;;1.20;1.10;;;;;;;;;;5056650;28;20180;-75
2021/07/11 05:59:58;;;;;;;3.53;1.00;;;;;;;;;;5051292;28;20191;-75
2021/07/11 06:03:02;;;;;;;1.63;0.90;;;;;;;;;;5045871;28;20626;-75
2021/07/11 06:06:06;;;;;;;2.00;1.10;;;;;;;;;;5061477;28;20188;-74
2021/07/11 06:09:10;;;;;;;1.90;1.33;;;;;;;;;;5056353;28;20188;-74
2021/07/11 06:12:16;;;;;;;39.50;22.80;;;;;;;;;;5056066;28;20211;-75
2021/07/11 06:15:20;;;;;;;23.80;15.93;;;;;;;;;;5036352;28;20180;-75
2021/07/11 06:18:24;;;;;;;11.20;8.80;;;;;;;;;;5041924;28;20207;-74
2021/07/11 06:21:28;;;;;;;12.30;10.57;;;;;;;;;;5062073;28;20222;-75
2021/07/11 06:24:32;;;;;;;9.43;7.03;;;;;;;;;;5043235;28;20220;-75
2021/07/11 06:27:41;;;;;;;3.07;2.70;;;;;;;;;;5036203;28;20185;-75
2021/07/11 06:30:45;;;;;;;4.87;4.20;;;;;;;;;;5048948;28;20220;-75
2021/07/11 06:33:49;;;;;;;5.20;4.40;;;;;;;;;;5055945;28;20180;-75
2021/07/11 06:36:53;;;;;;;2.60;2.40;;;;;;;;;;5057175;28;20188;-75
2021/07/11 06:39:57;;;;;;;2.47;2.27;;;;;;;;;;5036201;28;20193;-75
2021/07/11 06:43:01;;;;;;;3.90;1.60;;;;;;;;;;5066034;28;20638;-75
2021/07/11 06:46:05;;;;;;;2.50;2.30;;;;;;;;;;5057259;28;20212;-76
2021/07/11 06:49:10;;;;;;;3.70;3.00;;;;;;;;;;5057260;28;20180;-75
2021/07/11 06:52:14;;;;;;;4.60;3.00;;;;;;;;;;5055364;28;20219;-75
2021/07/11 06:55:18;;;;;;;3.80;1.83;;;;;;;;;;5024843;28;20624;-75
2021/07/11 06:58:22;;;;;;;3.53;1.70;;;;;;;;;;5039145;28;20203;-74
2021/07/11 07:01:27;;;;;;;2.43;1.33;;;;;;;;;;5049681;28;20535;-75
2021/07/11 07:04:31;;;;;;;1.67;1.40;;;;;;;;;;5052856;28;20215;-75
2021/07/11 07:07:42;;;;;;;1.80;1.00;;;;;;;;;;5062988;28;20195;-75
2021/07/11 07:10:46;;;;;;;2.17;1.50;;;;;;;;;;5073918;28;20215;-75
2021/07/11 07:13:50;;;;;;;2.67;1.23;;;;;;;;;;5035516;28;20185;-75
2021/07/11 07:16:55;;;;;;;1.77;1.17;;;;;;;;;;5057665;28;20203;-75
2021/07/11 07:19:59;;;;;;;4.90;1.60;;;;;;;;;;5061974;28;20187;-74
2021/07/11 07:23:03;;;;;;;1.27;0.90;;;;;;;;;;5042980;28;20184;-75
2021/07/11 07:26:07;;;;;;;1.97;1.20;;;;;;;;;;5034881;28;20224;-75
2021/07/11 07:29:11;;;;;;;1.87;1.67;;;;;;;;;;5046591;28;20187;-75
2021/07/11 07:32:15;;;;;;;1.70;1.27;;;;;;;;;;5049320;28;20510;-74
2021/07/11 07:35:21;;;;;;;2.87;1.13;;;;;;;;;;5058814;28;20745;-74
2021/07/11 07:38:26;;;;;;;1.93;1.20;;;;;;;;;;5038553;28;20212;-74
2021/07/11 07:41:30;;;;;;;1.73;1.10;;;;;;;;;;5048901;28;20222;-74
2021/07/11 07:44:34;;;;;;;2.47;1.30;;;;;;;;;;5041729;28;20211;-74
2021/07/11 07:47:38;;;;;;;5.83;1.50;;;;;;;;;;5070533;28;20183;-74
2021/07/11 07:50:42;;;;;;;1.90;1.47;;;;;;;;;;5023039;28;20581;-74
2021/07/11 07:53:47;;;;;;;1.93;1.53;;;;;;;;;;5071020;28;20516;-75
2021/07/11 07:56:51;;;;;;;4.40;2.07;;;;;;;;;;5070375;28;20179;-75
2021/07/11 07:59:55;;;;;;;1.83;1.50;;;;;;;;;;5056843;28;20191;-74
2021/07/11 08:02:59;;;;;;;1.80;1.30;;;;;;;;;;5030775;28;20204;-74
2021/07/11 08:06:04;;;;;;;3.57;1.50;;;;;;;;;;5017902;28;20675;-74
2021/07/11 08:09:08;;;;;;;1.80;1.30;;;;;;;;;;5030204;28;20200;-75
2021/07/11 08:12:12;;;;;;;1.53;1.17;;;;;;;;;;5047682;28;20212;-75
2021/07/11 08:15:17;;;;;;;3.63;1.20;;;;;;;;;;5052869;28;20195;-75
2021/07/11 08:18:21;;;;;;;3.67;1.20;;;;;;;;;;5057684;28;20199;-74
2021/07/11 08:21:25;;;;;;;4.83;1.30;;;;;;;;;;5026645;28;20224;-74
2021/07/11 08:24:29;;;;;;;1.60;1.30;;;;;;;;;;5029341;28;20188;-74
2021/07/11 08:27:35;;;;;;;1.67;1.50;;;;;;;;;;5051700;28;20184;-74
2021/07/11 08:30:40;;;;;;;2.47;1.40;;;;;;;;;;5056988;28;20713;-74
2021/07/11 08:33:44;;;;;;;1.50;1.30;;;;;;;;;;5057571;28;20179;-75
2021/07/11 08:36:51;;;;;;;2.37;1.20;;;;;;;;;;5043833;28;20559;-74
2021/07/11 08:39:55;;;;;;;1.40;1.30;;;;;;;;;;5037065;28;20187;-74
2021/07/11 08:43:02;;;;;;;2.20;1.50;;;;;;;;;;5017829;28;20185;-74
2021/07/11 08:46:07;;;;;;;1.73;1.40;;;;;;;;;;5016983;28;20216;-75
2021/07/11 08:49:11;;;;;;;1.53;1.40;;;;;;;;;;5049346;28;20195;-75
2021/07/11 08:52:16;;;;;;;1.40;1.00;;;;;;;;;;5029997;28;20313;-74
2021/07/11 08:55:23;;;;;;;2.60;1.40;;;;;;;;;;5037896;28;20183;-74
2021/07/11 08:58:28;;;;;;;2.93;1.30;;;;;;;;;;5025911;28;20196;-74
2021/07/11 09:01:33;;;;;;;1.77;1.30;;;;;;;;;;5049480;28;20698;-75
2021/07/11 09:04:42;;;;;;;1.97;1.43;;;;;;;;;;5039009;28;20935;-75
2021/07/11 09:07:56;;;;;;;1.97;1.57;;;;;;;;;;5029719;28;20192;-75
2021/07/11 09:11:02;;;;;;;3.23;1.40;;;;;;;;;;5053029;28;20690;-73
2021/07/11 09:14:15;;;;;;;3.03;1.40;;;;;;;;;;5048825;28;20215;-75
2021/07/11 09:17:20;;;;;;;3.30;1.53;;;;;;;;;;5049597;28;20196;-73
2021/07/11 09:20:25;;;;;;;1.50;1.37;;;;;;;;;;5069088;28;20179;-73
2021/07/11 09:23:30;;;;;;;4.20;1.50;;;;;;;;;;5069709;28;20184;-74
2021/07/11 09:26:35;;;;;;;2.23;1.60;;;;;;;;;;5016877;28;20213;-73
2021/07/11 09:29:41;;;;;;;6.40;1.30;;;;;;;;;;5026180;28;20567;-73
2021/07/11 09:32:51;;;;;;;2.10;1.60;;;;;;;;;;5036883;28;20188;-74
2021/07/11 09:36:11;;;;;;;1.90;1.00;;;;;;;;;;5050916;28;20196;-73
2021/07/11 09:39:15;;;;;;;3.03;1.60;;;;;;;;;;5052995;28;20650;-73
2021/07/11 09:42:30;;;;;;;2.00;1.60;;;;;;;;;;5057063;28;20681;-74
2021/07/11 09:45:34;;;;;;;1.57;1.03;;;;;;;;;;5062425;28;20544;-73
2021/07/11 09:48:39;;;;;;;2.00;1.40;;;;;;;;;;5058976;28;20196;-73
2021/07/11 09:51:43;;;;;;;2.33;1.57;;;;;;;;;;5069919;28;20211;-73
2021/07/11 09:55:08;;;;;;;1.63;1.40;;;;;;;;;;5060840;28;20642;-74
2021/07/11 09:58:12;;;;;;;3.87;1.40;;;;;;;;;;5060923;28;20191;-73
2021/07/11 10:01:16;;;;;;;3.17;1.30;;;;;;;;;;5071488;28;20563;-73
2021/07/11 10:04:20;;;;;;;4.00;1.40;;;;;;;;;;5032983;28;20185;-74
2021/07/11 10:07:24;;;;;;;2.73;1.63;;;;;;;;;;5024406;28;20177;-74
2021/07/11 10:10:34;;;;;;;3.97;1.50;;;;;;;;;;5046738;28;20196;-74
2021/07/11 10:13:38;;;;;;;1.67;1.57;;;;;;;;;;5052661;28;20639;-73
2021/07/11 10:16:44;;;;;;;1.53;1.43;;;;;;;;;;5040313;28;20564;-74
2021/07/11 10:19:50;;;;;;;3.87;2.20;;;;;;;;;;5060052;28;20199;-74
2021/07/11 10:22:54;;;;;;;3.23;1.53;;;;;;;;;;5040938;28;20196;-74
2021/07/11 10:26:13;;;;;;;5.30;2.40;;;;;;;;;;5039977;28;20212;-73
2021/07/11 10:29:20;;;;;;;2.13;1.77;;;;;;;;;;5048702;28;20184;-72
2021/07/11 10:32:27;;;;;;;5.00;1.80;;;;;;;;;;5052140;28;20816;-72
2021/07/11 10:35:31;;;;;;;8.93;2.80;;;;;;;;;;5059902;28;20176;-72
2021/07/11 10:38:49;;;;;;;3.43;1.93;;;;;;;;;;5059164;28;20179;-71
2021/07/11 10:41:53;;;;;;;1.60;1.50;;;;;;;;;;5052003;28;20227;-72
2021/07/11 10:45:06;;;;;;;1.83;1.60;;;;;;;;;;5041010;28;20187;-72
2021/07/11 10:48:10;;;;;;;1.63;1.53;;;;;;;;;;5055872;28;20191;-73
2021/07/11 10:51:18;;;;;;;2.60;1.57;;;;;;;;;;5071575;28;20222;-73
2021/07/11 10:54:26;;;;;;;1.83;1.43;;;;;;;;;;5071511;28;20499;-72
2021/07/11 10:57:34;;;;;;;2.53;1.60;;;;;;;;;;5039618;28;20184;-73
2021/07/11 11:00:38;;;;;;;1.97;1.70;;;;;;;;;;5059747;28;20224;-72
2021/07/11 11:03:52;;;;;;;2.00;1.43;;;;;;;;;;5067438;28;20195;-72
2021/07/11 11:06:56;;;;;;;3.03;1.30;;;;;;;;;;5057795;28;20207;-73
2021/07/11 11:10:00;;;;;;;2.13;1.30;;;;;;;;;;5062444;28;20199;-72
2021/07/11 11:13:11;;;;;;;1.80;1.53;;;;;;;;;;5054407;28;20188;-73
2021/07/11 11:16:20;;;;;;;1.83;1.50;;;;;;;;;;5051995;28;20200;-73
2021/07/11 11:19:24;;;;;;;1.70;1.30;;;;;;;;;;5033017;28;20300;-72
2021/07/11 11:22:28;;;;;;;1.50;1.23;;;;;;;;;;5046322;28;20221;-72
2021/07/11 11:25:33;;;;;;;3.20;1.47;;;;;;;;;;5071173;28;20203;-72
2021/07/11 11:28:39;;;;;;;2.10;1.63;;;;;;;;;;5063428;28;20217;-73
2021/07/11 11:31:44;;;;;;;1.73;1.50;;;;;;;;;;5057937;28;20224;-72
2021/07/11 11:34:49;;;;;;;1.80;1.40;;;;;;;;;;5050929;28;20204;-72
2021/07/11 11:37:55;;;;;;;1.97;1.30;;;;;;;;;;5038902;28;20200;-72
2021/07/11 11:41:10;;;;;;;1.40;1.23;;;;;;;;;;5056179;28;20217;-72
2021/07/11 11:44:16;;;;;;;1.87;1.50;;;;;;;;;;5060921;28;20652;-72
2021/07/11 11:47:20;;;;;;;2.20;1.40;;;;;;;;;;5054220;28;20551;-72
2021/07/11 11:50:25;;;;;;;2.20;1.50;;;;;;;;;;5039888;28;20196;-72
2021/07/11 11:53:30;;;;;;;3.47;1.47;;;;;;;;;;5055805;28;20187;-72
2021/07/11 11:56:41;;;;;;;1.50;1.30;;;;;;;;;;5056428;28;20589;-72
2021/07/11 11:59:49;;;;;;;2.77;1.40;;;;;;;;;;5058397;28;20198;-72
2021/07/11 12:02:59;;;;;;;2.30;1.30;;;;;;;;;;5033821;28;20182;-72
2021/07/11 12:06:05;;;;;;;2.03;1.50;;;;;;;;;;5065847;28;20221;-72
2021/07/11 12:09:09;;;;;;;2.57;1.20;;;;;;;;;;5030302;28;20180;-72
2021/07/11 12:12:17;;;;;;;3.27;1.23;;;;;;;;;;5063583;28;20699;-72
2021/07/11 12:15:35;;;;;;;1.60;1.30;;;;;;;;;;5061888;28;20196;-72
2021/07/11 12:18:45;;;;;;;2.10;1.58;;;;;;;;;;5057429;28;20199;-72
2021/07/11 12:21:51;;;;;;;1.30;1.05;;;;;;;;;;5030629;28;20229;-71
2021/07/11 12:25:15;;;;;;;2.03;1.35;;;;;;;;;;5051202;28;20186;-72
2021/07/11 12:28:19;;;;;;;1.35;1.20;;;;;;;;;;5030022;28;20525;-72
2021/07/11 12:31:29;;;;;;;1.30;1.20;;;;;;;;;;5058875;28;20213;-72
2021/07/11 12:34:33;;;;;;;2.15;1.20;;;;;;;;;;5050543;28;20194;-71
2021/07/11 12:37:50;;;;;;;2.13;1.23;;;;;;;;;;5043383;28;20194;-72
2021/07/11 12:40:57;;;;;;;1.67;1.35;;;;;;;;;;5056370;28;20222;-72
2021/07/11 12:44:04;;;;;;;2.28;1.48;;;;;;;;;;5061684;28;20189;-75
2021/07/11 12:47:15;;;;;;;2.53;1.40;;;;;;;;;;5031586;28;20214;-75
2021/07/11 12:50:40;;;;;;;1.65;1.20;;;;;;;;;;5067279;28;20197;-76
2021/07/11 12:53:50;;;;;;;1.88;1.00;;;;;;;;;;5061793;28;20199;-76
2021/07/11 12:57:05;;;;;;;3.15;1.17;;;;;;;;;;5049880;28;20173;-76
2021/07/11 13:00:11;;;;;;;1.52;1.13;;;;;;;;;;5056957;28;20191;-76
2021/07/11 13:03:24;;;;;;;1.42;1.27;;;;;;;;;;5059359;28;20193;-76
2021/07/11 13:06:37;;;;;;;1.90;1.13;;;;;;;;;;5068656;28;20740;-76
2021/07/11 13:09:41;;;;;;;2.13;1.30;;;;;;;;;;5063394;28;20665;-76
2021/07/11 13:12:46;;;;;;;4.97;1.30;;;;;;;;;;5050186;28;20202;-76
2021/07/11 13:15:50;;;;;;;1.75;1.27;;;;;;;;;;5052668;28;20215;-76
2021/07/11 13:18:54;;;;;;;1.27;1.10;;;;;;;;;;5050689;28;20194;-76
2021/07/11 13:21:58;;;;;;;2.13;1.27;;;;;;;;;;5051554;28;20222;-76
2021/07/11 13:25:02;;;;;;;1.30;1.05;;;;;;;;;;5071073;28;20186;-76
2021/07/11 13:28:06;;;;;;;1.52;1.30;;;;;;;;;;5049852;28;20209;-76
2021/07/11 13:31:10;;;;;;;1.40;1.15;;;;;;;;;;5074301;28;20221;-77
2021/07/11 13:35:05;;;;;;;2.72;1.10;;;;;;;;;;5078212;22;20230;-85
2021/07/11 13:38:39;;;;;;;;;;;;;;;;;;;;;
2021/07/11 13:41:46;;;;;;;1.73;1.40;;;;;;;;;;5026318;28;20217;-85
2021/07/11 13:44:50;;;;;;;1.90;1.25;;;;;;;;;;5029881;28;20219;-85
2021/07/11 13:48:00;;;;;;;1.63;1.40;;;;;;;;;;5038717;28;20213;-85
2021/07/11 13:51:05;;;;;;;1.73;1.40;;;;;;;;;;5063475;28;20181;-87
2021/07/11 13:54:10;;;;;;;2.13;1.15;;;;;;;;;;5046312;28;20223;-87
2021/07/11 13:57:16;;;;;;;2.33;1.33;;;;;;;;;;5045263;28;20168;-88
2021/07/11 14:00:21;;;;;;;1.60;1.30;;;;;;;;;;5034198;28;20181;-87
2021/07/11 14:03:25;;;;;;;1.63;1.30;;;;;;;;;;5055746;28;20525;-88
2021/07/11 14:06:30;;;;;;;5.13;1.67;;;;;;;;;;5032639;28;20556;-89
2021/07/11 14:09:34;;;;;;;1.57;1.40;;;;;;;;;;5033171;28;20179;-87
2021/07/11 14:12:38;;;;;;;9.63;1.70;;;;;;;;;;5035173;28;20184;-88
2021/07/11 14:15:42;;;;;;;1.77;1.50;;;;;;;;;;5052433;28;20692;-88
2021/07/11 14:18:46;;;;;;;1.77;1.67;;;;;;;;;;5061580;28;20180;-89
2021/07/11 14:21:50;;;;;;;1.70;1.60;;;;;;;;;;5044757;28;20211;-89
2021/07/11 14:24:55;;;;;;;1.70;1.40;;;;;;;;;;5030832;28;20212;-86
2021/07/11 14:27:58;;;;;;;2.07;1.53;;;;;;;;;;5030535;28;20559;-87
2021/07/11 14:31:03;;;;;;;2.93;1.60;;;;;;;;;;5030562;28;20507;-86
2021/07/11 14:34:07;;;;;;;1.47;1.30;;;;;;;;;;5030760;28;20227;-86
2021/07/11 14:37:12;;;;;;;2.10;1.60;;;;;;;;;;5050194;28;20175;-87
2021/07/11 14:40:16;;;;;;;1.60;1.50;;;;;;;;;;5033663;28;20185;-87
2021/07/11 14:43:20;;;;;;;2.43;1.43;;;;;;;;;;5022471;28;20177;-86
2021/07/11 14:46:24;;;;;;;3.07;1.50;;;;;;;;;;5027193;28;20187;-86
2021/07/11 14:49:28;;;;;;;2.33;1.60;;;;;;;;;;5033778;28;20176;-87
2021/07/11 14:52:33;;;;;;;2.10;1.40;;;;;;;;;;5028355;28;20527;-87
2021/07/11 14:55:38;;;;;;;4.77;1.60;;;;;;;;;;5050545;28;20211;-86
2021/07/11 14:58:44;;;;;;;3.70;1.60;;;;;;;;;;5050592;28;20180;-87
2021/07/11 15:01:48;;;;;;;1.80;1.40;;;;;;;;;;5050544;28;20195;-87
2021/07/11 15:04:53;;;;;;;1.77;1.67;;;;;;;;;;5043497;28;20702;-87
2021/07/11 15:07:57;;;;;;;1.70;1.60;;;;;;;;;;5029873;28;20208;-84
2021/07/11 15:11:01;;;;;;;1.77;1.50;;;;;;;;;;5053979;28;20649;-83
2021/07/11 15:14:05;;;;;;;2.73;1.20;;;;;;;;;;5061466;28;20211;-83
2021/07/11 15:17:09;;;;;;;2.40;1.30;;;;;;;;;;5049630;28;20188;-83
2021/07/11 15:20:14;;;;;;;1.80;1.20;;;;;;;;;;5061824;28;20183;-83
2021/07/11 15:23:19;;;;;;;2.70;0.90;;;;;;;;;;5072503;28;20176;-83
2021/07/11 15:26:24;;;;;;;0.90;0.87;;;;;;;;;;5049641;28;20180;-83
2021/07/11 15:29:29;;;;;;;1.37;0.80;;;;;;;;;;5021021;28;20188;-83
2021/07/11 15:32:34;;;;;;;1.00;0.90;;;;;;;;;;5021444;28;20185;-83
2021/07/11 15:35:38;;;;;;;1.33;0.80;;;;;;;;;;5021813;28;20228;-84
2021/07/11 15:38:43;;;;;;;0.80;0.63;;;;;;;;;;5027848;28;20194;-85
2021/07/11 15:41:48;;;;;;;1.20;0.70;;;;;;;;;;5042980;28;20639;-84
2021/07/11 15:44:52;;;;;;;1.33;0.97;;;;;;;;;;5043217;28;20217;-85
2021/07/11 15:47:56;;;;;;;1.13;0.80;;;;;;;;;;5042547;28;20211;-85
2021/07/11 15:51:01;;;;;;;1.70;0.83;;;;;;;;;;5031783;28;20624;-84
2021/07/11 15:54:05;;;;;;;2.37;0.80;;;;;;;;;;5043214;28;20222;-85
2021/07/11 15:57:09;;;;;;;4.03;1.00;;;;;;;;;;5031367;28;20179;-84
2021/07/11 16:00:13;;;;;;;1.00;0.90;;;;;;;;;;5043110;28;20525;-84
2021/07/11 16:03:18;;;;;;;0.70;0.70;;;;;;;;;;5042590;28;20176;-84
2021/07/11 16:06:24;;;;;;;1.20;0.80;;;;;;;;;;5043268;28;20181;-85
2021/07/11 16:09:28;;;;;;;1.83;0.80;;;;;;;;;;5042667;28;20177;-84
2021/07/11 16:12:32;;;;;;;0.80;0.50;;;;;;;;;;5042638;28;20195;-84
2021/07/11 16:15:37;;;;;;;0.70;0.70;;;;;;;;;;5031110;28;20219;-84
2021/07/11 16:18:41;;;;;;;0.60;0.50;;;;;;;;;;5044121;28;20180;-85
2021/07/11 16:21:46;;;;;;;1.80;0.77;;;;;;;;;;5031499;28;20622;-84
2021/07/11 16:24:50;;;;;;;2.03;0.97;;;;;;;;;;5031765;28;20215;-84
2021/07/11 16:28:00;;;;;;;0.80;0.80;;;;;;;;;;5031098;28;20208;-84
2021/07/11 16:31:04;;;;;;;1.57;1.20;;;;;;;;;;5042155;28;20180;-84
2021/07/11 16:34:09;;;;;;;0.80;0.67;;;;;;;;;;5030164;28;20227;-84
2021/07/11 16:37:13;;;;;;;0.97;0.80;;;;;;;;;;5042020;28;20176;-84
2021/07/11 16:40:18;;;;;;;0.70;0.60;;;;;;;;;;5041741;28;20184;-84
2021/07/11 16:43:22;;;;;;;1.30;0.97;;;;;;;;;;5030822;28;20188;-84
2021/07/11 16:46:26;;;;;;;0.80;0.80;;;;;;;;;;5041936;28;20176;-84
2021/07/11 16:49:31;;;;;;;1.40;0.70;;;;;;;;;;5030291;28;20176;-84
2021/07/11 16:52:35;;;;;;;1.10;0.70;;;;;;;;;;5030441;28;20176;-84
2021/07/11 16:55:39;;;;;;;0.67;0.50;;;;;;;;;;5052882;28;20219;-84
2021/07/11 16:58:44;;;;;;;0.77;0.50;;;;;;;;;;5041997;28;20176;-84
2021/07/11 17:01:48;;;;;;;0.57;0.50;;;;;;;;;;5029926;28;20176;-84
2021/07/11 17:04:52;;;;;;;1.40;0.60;;;;;;;;;;5030058;28;20220;-84
2021/07/11 17:07:56;;;;;;;0.83;0.70;;;;;;;;;;5052945;28;20208;-84
2021/07/11 17:11:01;;;;;;;0.63;0.57;;;;;;;;;;5041601;28;20184;-84
2021/07/11 17:14:07;;;;;;;3.73;0.60;;;;;;;;;;5041187;28;20216;-84
2021/07/11 17:17:11;;;;;;;0.63;0.63;;;;;;;;;;5029683;28;20195;-84
2021/07/11 17:20:15;;;;;;;1.07;0.60;;;;;;;;;;5030224;28;20199;-84
2021/07/11 17:23:20;;;;;;;1.83;0.70;;;;;;;;;;5040948;28;20200;-84
2021/07/11 17:26:24;;;;;;;1.03;0.60;;;;;;;;;;5030075;28;20516;-84
2021/07/11 17:29:28;;;;;;;0.73;0.70;;;;;;;;;;5030070;28;20180;-84
2021/07/11 17:32:32;;;;;;;0.60;0.60;;;;;;;;;;5041189;28;20184;-84
2021/07/11 17:35:36;;;;;;;0.70;0.60;;;;;;;;;;5029403;28;20227;-84
2021/07/11 17:38:40;;;;;;;2.07;0.73;;;;;;;;;;5030095;28;20180;-84
2021/07/11 17:41:44;;;;;;;0.80;0.70;;;;;;;;;;5030008;28;20180;-84
2021/07/11 17:44:48;;;;;;;1.27;0.77;;;;;;;;;;5040694;28;20219;-84
2021/07/11 17:47:53;;;;;;;0.67;0.67;;;;;;;;;;5052421;28;20200;-84
2021/07/11 17:50:57;;;;;;;1.33;0.83;;;;;;;;;;5019091;28;20185;-85
2021/07/11 17:54:02;;;;;;;1.97;0.70;;;;;;;;;;5018968;28;20220;-84
2021/07/11 17:57:06;;;;;;;4.90;0.70;;;;;;;;;;5007778;28;20189;-85
2021/07/11 18:00:13;;;;;;;1.27;0.80;;;;;;;;;;5019266;28;20759;-84
2021/07/11 18:03:17;;;;;;;3.93;0.87;;;;;;;;;;5017000;28;20529;-85
2021/07/11 18:05:51;;;;;;;1.90;0.73;;;;;;;;;;5026821;23;20227;-73
2021/07/11 18:08:55;;;;;;;0.50;0.50;;;;;;;;;;5050920;28;20208;-74
2021/07/11 18:11:59;;;;;;;0.77;0.77;;;;;;;;;;5069334;28;20211;-74
2021/07/11 18:15:05;;;;;;;0.70;0.70;;;;;;;;;;5031117;28;20669;-74
2021/07/11 18:18:09;;;;;;;0.80;0.70;;;;;;;;;;5045653;28;20192;-73
2021/07/11 18:21:13;;;;;;;4.30;0.70;;;;;;;;;;5043516;28;20224;-72
2021/07/11 18:24:17;;;;;;;2.00;0.70;;;;;;;;;;5027986;28;20236;-73
2021/07/11 18:27:22;;;;;;;2.47;0.70;;;;;;;;;;5048940;28;20191;-73
2021/07/11 18:30:27;;;;;;;1.73;1.03;;;;;;;;;;5060650;28;20651;-73
2021/07/11 18:33:32;;;;;;;0.83;0.70;;;;;;;;;;5039829;28;20188;-73
2021/07/11 18:36:36;;;;;;;2.03;0.90;;;;;;;;;;5053493;28;20380;-73
2021/07/11 18:39:40;;;;;;;0.93;0.77;;;;;;;;;;5028378;28;20196;-72
2021/07/11 18:42:46;;;;;;;1.40;0.60;;;;;;;;;;5032558;28;20193;-73
2021/07/11 18:45:51;;;;;;;2.57;0.83;;;;;;;;;;5032071;28;20198;-73
2021/07/11 18:48:55;;;;;;;0.80;0.73;;;;;;;;;;5008367;28;20205;-73
2021/07/11 18:51:59;;;;;;;1.17;0.70;;;;;;;;;;5046762;28;20322;-73
2021/07/11 18:55:06;;;;;;;1.43;0.80;;;;;;;;;;5070833;28;20191;-73
2021/07/11 18:58:10;;;;;;;2.10;0.63;;;;;;;;;;5048045;28;20167;-73
2021/07/11 19:01:14;;;;;;;2.17;1.10;;;;;;;;;;5045976;28;20218;-73
2021/07/11 19:04:18;;;;;;;2.13;0.70;;;;;;;;;;5054035;28;20207;-73
2021/07/11 19:07:22;;;;;;;1.17;0.73;;;;;;;;;;5054183;28;20188;-73
2021/07/11 19:10:27;;;;;;;1.37;0.90;;;;;;;;;;5038966;28;20192;-73
2021/07/11 19:13:31;;;;;;;0.93;0.83;;;;;;;;;;5063797;28;20183;-73
2021/07/11 19:16:35;;;;;;;2.07;1.00;;;;;;;;;;5071707;28;20179;-73
2021/07/11 19:19:40;;;;;;;3.77;1.03;;;;;;;;;;5059525;28;20180;-73
2021/07/11 19:22:45;;;;;;;2.43;0.80;;;;;;;;;;5037768;28;20196;-73
2021/07/11 19:25:49;;;;;;;3.07;0.83;;;;;;;;;;5036448;28;20191;-73
2021/07/11 19:28:53;;;;;;;1.00;0.80;;;;;;;;;;5044994;28;20235;-73
2021/07/11 19:31:57;;;;;;;1.93;0.83;;;;;;;;;;5058811;28;20219;-73
2021/07/11 19:35:02;;;;;;;3.83;1.10;;;;;;;;;;5018955;28;20181;-73
2021/07/11 19:38:07;;;;;;;2.60;1.00;;;;;;;;;;5035616;28;20192;-73
2021/07/11 19:41:11;;;;;;;2.97;0.83;;;;;;;;;;5043313;28;20223;-73
2021/07/11 19:44:15;;;;;;;0.83;0.70;;;;;;;;;;5056637;28;20188;-73
2021/07/11 19:47:19;;;;;;;2.77;0.90;;;;;;;;;;5040306;28;20183;-73
2021/07/11 19:50:24;;;;;;;1.87;1.20;;;;;;;;;;5038962;28;20180;-73
2021/07/11 19:53:28;;;;;;;2.87;1.00;;;;;;;;;;5036091;28;20183;-73
2021/07/11 19:56:33;;;;;;;1.60;1.07;;;;;;;;;;5050781;28;20540;-73
2021/07/11 19:59:37;;;;;;;1.10;0.90;;;;;;;;;;5050810;28;20180;-73
2021/07/11 20:02:42;;;;;;;1.00;0.90;;;;;;;;;;5051429;28;20513;-73
2021/07/11 20:05:46;;;;;;;3.43;1.07;;;;;;;;;;5062256;28;20214;-73
2021/07/11 20:08:54;;;;;;;1.57;1.07;;;;;;;;;;5058737;28;20629;-73
2021/07/11 20:11:59;;;;;;;1.70;1.00;;;;;;;;;;5071026;28;20693;-73
2021/07/11 20:15:08;;;;;;;1.83;1.17;;;;;;;;;;5030303;28;20200;-73
2021/07/11 20:18:12;;;;;;;2.10;1.20;;;;;;;;;;5030644;28;20181;-73
2021/07/11 20:21:16;;;;;;;1.83;1.00;;;;;;;;;;5051720;28;20222;-72
2021/07/11 20:24:20;;;;;;;3.37;1.33;;;;;;;;;;5057166;28;20192;-72
2021/07/11 20:27:24;;;;;;;4.97;1.20;;;;;;;;;;5050022;28;20184;-73
2021/07/11 20:30:28;;;;;;;1.40;1.30;;;;;;;;;;5041143;28;20192;-72
2021/07/11 20:33:32;;;;;;;1.73;1.43;;;;;;;;;;5057984;28;20187;-73
2021/07/11 20:36:36;;;;;;;2.43;1.27;;;;;;;;;;5069739;28;20187;-72
2021/07/11 20:39:41;;;;;;;3.47;1.90;;;;;;;;;;5043296;28;20207;-72
2021/07/11 20:42:45;;;;;;;2.27;1.70;;;;;;;;;;5044723;28;20211;-74
2021/07/11 20:45:49;;;;;;;2.73;1.60;;;;;;;;;;5006884;28;20181;-73
2021/07/11 20:48:53;;;;;;;2.43;1.60;;;;;;;;;;5030086;28;20624;-72
2021/07/11 20:51:58;;;;;;;3.90;1.60;;;;;;;;;;5029995;28;20228;-72
2021/07/11 20:55:03;;;;;;;4.43;1.77;;;;;;;;;;5055009;28;20198;-72
2021/07/11 20:58:09;;;;;;;6.30;2.10;;;;;;;;;;5047033;28;20200;-72
2021/07/11 21:01:15;;;;;;;2.40;1.80;;;;;;;;;;5049942;28;20211;-74
2021/07/11 21:04:19;;;;;;;3.83;1.60;;;;;;;;;;5061043;28;20211;-74
2021/07/11 21:07:24;;;;;;;3.03;1.40;;;;;;;;;;5017977;28;20181;-74
2021/07/11 21:10:29;;;;;;;2.53;1.40;;;;;;;;;;5048777;28;20187;-74
2021/07/11 21:13:33;;;;;;;4.53;1.80;;;;;;;;;;5052284;28;20196;-74
2021/07/11 21:16:37;;;;;;;5.87;1.90;;;;;;;;;;5049907;28;20184;-74
2021/07/11 21:19:41;;;;;;;1.87;1.60;;;;;;;;;;5006478;28;20200;-74
2021/07/11 21:22:46;;;;;;;8.90;1.80;;;;;;;;;;5046190;28;20614;-74
2021/07/11 21:25:51;;;;;;;1.90;1.60;;;;;;;;;;5029557;28;20176;-74
2021/07/11 21:28:56;;;;;;;2.07;1.80;;;;;;;;;;5017523;28;20181;-75
2021/07/11 21:32:00;;;;;;;3.03;1.93;;;;;;;;;;5029651;28;20216;-74
2021/07/11 21:35:06;;;;;;;3.20;1.70;;;;;;;;;;5063293;28;20187;-74
2021/07/11 21:38:10;;;;;;;3.57;1.80;;;;;;;;;;5037030;28;20180;-74
2021/07/11 21:41:14;;;;;;;1.90;1.80;;;;;;;;;;5026109;28;20227;-74
2021/07/11 21:44:18;;;;;;;6.13;1.97;;;;;;;;;;5047750;28;20208;-74
2021/07/11 21:47:22;;;;;;;5.97;2.00;;;;;;;;;;5013852;28;20196;-74
2021/07/11 21:50:27;;;;;;;2.50;1.50;;;;;;;;;;5038341;28;20196;-74
2021/07/11 21:53:31;;;;;;;2.57;1.60;;;;;;;;;;5068451;28;20200;-74
2021/07/11 21:56:35;;;;;;;2.00;1.50;;;;;;;;;;5053479;28;20180;-74
2021/07/11 21:59:39;;;;;;;7.40;2.30;;;;;;;;;;5009917;28;20212;-74
2021/07/11 22:02:43;;;;;;;5.20;1.90;;;;;;;;;;5048940;28;20183;-74
2021/07/11 22:05:47;;;;;;;3.10;1.97;;;;;;;;;;5034445;28;20554;-74
2021/07/11 22:08:51;;;;;;;2.23;1.50;;;;;;;;;;5073221;28;20184;-72
2021/07/11 22:11:56;;;;;;;2.10;1.83;;;;;;;;;;5073084;28;20693;-74
2021/07/11 22:15:00;;;;;;;1.80;1.60;;;;;;;;;;5023757;28;20678;-75
2021/07/11 22:18:05;;;;;;;4.40;2.17;;;;;;;;;;5024597;28;20959;-74
2021/07/11 22:21:09;;;;;;;2.97;1.80;;;;;;;;;;5071812;28;20211;-74
2021/07/11 22:24:15;;;;;;;2.63;2.20;;;;;;;;;;5063306;28;20191;-73
2021/07/11 22:27:19;;;;;;;3.17;2.07;;;;;;;;;;5029719;28;20216;-73
2021/07/11 22:30:24;;;;;;;3.33;1.80;;;;;;;;;;5036879;28;20203;-73
2021/07/11 22:33:29;;;;;;;3.00;1.70;;;;;;;;;;5055211;28;20207;-73
2021/07/11 22:36:33;;;;;;;4.33;2.00;;;;;;;;;;5050409;28;20192;-74
2021/07/11 22:39:38;;;;;;;3.70;1.70;;;;;;;;;;5028167;28;20560;-73
2021/07/11 22:42:42;;;;;;;2.80;2.13;;;;;;;;;;5039934;28;20185;-73
2021/07/11 22:45:47;;;;;;;3.77;2.10;;;;;;;;;;5026117;28;20187;-74
2021/07/11 22:48:51;;;;;;;3.73;2.30;;;;;;;;;;5065916;28;20191;-73
2021/07/11 22:51:55;;;;;;;2.30;1.80;;;;;;;;;;5069828;23;20223;-76
2021/07/11 22:54:59;;;;;;;2.00;1.73;;;;;;;;;;5072691;28;20191;-76